createdAt,value
2018-08-17T00:01:51.932Z,96807.13
2018-08-17T00:04:19.107Z,96812.92
2018-08-17T00:06:46.276Z,96807.87
2018-08-17T00:09:13.606Z,96811.04
2018-08-17T00:11:40.780Z,96809.55
2018-08-17T00:14:08.271Z,96806.66
2018-08-17T00:16:35.403Z,96807.61
2018-08-17T00:19:03.260Z,96800.61
2018-08-17T00:21:30.409Z,96766.06
2018-08-17T00:23:57.581Z,96798.84
2018-08-17T00:26:24.732Z,96797.77
2018-08-17T00:28:51.959Z,96798.61
2018-08-17T00:31:19.089Z,96801.05
2018-08-17T00:33:46.229Z,96797.29
2018-08-17T00:36:13.328Z,96800.87
2018-08-17T00:38:40.452Z,96798.05
2018-08-17T00:41:07.696Z,96795.61
2018-08-17T00:43:34.846Z,96795.36
2018-08-17T00:46:02.072Z,96796.03
2018-08-17T00:48:29.620Z,96794.43
2018-08-17T00:50:56.732Z,96792.45
2018-08-17T00:53:23.900Z,96790.55
2018-08-17T00:55:51.028Z,96790.20
2018-08-17T00:58:18.148Z,96796.09
2018-08-17T01:00:45.308Z,96796.30
2018-08-17T01:03:12.403Z,96791.32
2018-08-17T01:05:39.552Z,96794.50
2018-08-17T01:08:06.988Z,96790.16
2018-08-17T01:10:34.114Z,96795.61
2018-08-17T01:13:01.273Z,96787.80
2018-08-17T01:15:28.423Z,96787.61
2018-08-17T01:17:55.600Z,96787.69
2018-08-17T01:20:22.756Z,96790.34
2018-08-17T01:22:49.866Z,96793.30
2018-08-17T01:25:17.021Z,96797.66
2018-08-17T01:27:44.184Z,96793.78
2018-08-17T01:30:11.351Z,96790.95
2018-08-17T01:32:38.493Z,96801.66
2018-08-17T01:35:06.012Z,96798.76
2018-08-17T01:37:33.133Z,96797.93
2018-08-17T01:40:00.337Z,96798.64
2018-08-17T01:42:27.466Z,96788.45
2018-08-17T01:44:54.583Z,96794.97
2018-08-17T01:47:21.780Z,96800.23
2018-08-17T01:49:48.924Z,96798.42
2018-08-17T01:52:16.052Z,96799.59
2018-08-17T01:54:43.201Z,96796.57
2018-08-17T01:57:10.408Z,96799.18
2018-08-17T01:59:37.508Z,96796.73
2018-08-17T02:02:04.776Z,96799.23
2018-08-17T02:04:31.856Z,96798.77
2018-08-17T02:06:58.952Z,96801.92
2018-08-17T02:09:26.092Z,96799.09
2018-08-17T02:11:53.268Z,96803.03
2018-08-17T02:14:20.447Z,96801.06
2018-08-17T02:16:47.570Z,96800.70
2018-08-17T02:19:14.717Z,96800.76
2018-08-17T02:21:41.818Z,96802.85
2018-08-17T02:24:08.993Z,96799.07
2018-08-17T02:26:36.061Z,96797.14
2018-08-17T02:29:03.301Z,96801.87
2018-08-17T02:31:30.458Z,96702.44
2018-08-17T02:33:57.600Z,96800.93
2018-08-17T02:36:24.728Z,96795.55
2018-08-17T02:38:51.830Z,96800.14
2018-08-17T02:41:18.983Z,96795.17
2018-08-17T02:43:46.203Z,96797.00
2018-08-17T02:46:13.356Z,96796.72
2018-08-17T02:48:40.451Z,96793.46
2018-08-17T02:51:07.588Z,96793.00
2018-08-17T02:53:34.776Z,96793.00
2018-08-17T02:56:01.903Z,96794.16
2018-08-17T02:58:29.159Z,96791.33
2018-08-17T03:00:56.515Z,96793.94
2018-08-17T03:03:23.683Z,96793.02
2018-08-17T03:05:50.855Z,96789.94
2018-08-17T03:08:18.005Z,96789.78
2018-08-17T03:10:45.183Z,96790.66
2018-08-17T03:13:12.332Z,96792.76
2018-08-17T03:15:39.443Z,96789.32
2018-08-17T03:18:06.577Z,96792.23
2018-08-17T03:20:33.768Z,96787.86
2018-08-17T03:23:00.917Z,96794.43
2018-08-17T03:25:28.052Z,96791.39
2018-08-17T03:27:55.192Z,96795.97
2018-08-17T03:30:22.365Z,96792.30
2018-08-17T03:32:49.508Z,96796.99
2018-08-17T03:35:16.632Z,96798.34
2018-08-17T03:37:43.762Z,96798.84
2018-08-17T03:40:10.865Z,96795.23
2018-08-17T03:42:37.979Z,96797.31
2018-08-17T03:45:05.535Z,96794.58
2018-08-17T03:47:32.629Z,96803.45
2018-08-17T03:49:59.829Z,96800.59
2018-08-17T03:52:26.976Z,96798.59
2018-08-17T03:54:54.160Z,96801.36
2018-08-17T03:57:21.292Z,96810.52
2018-08-17T03:59:48.432Z,96807.80
2018-08-17T04:02:15.516Z,96804.56
2018-08-17T04:04:42.618Z,96810.95
2018-08-17T04:07:09.774Z,96808.64
2018-08-17T04:09:37.052Z,96810.57
2018-08-17T04:12:04.196Z,96816.05
2018-08-17T04:14:31.297Z,96814.19
2018-08-17T04:16:58.432Z,96817.73
2018-08-17T04:19:25.600Z,96823.61
2018-08-17T04:21:52.735Z,96819.86
2018-08-17T04:24:19.869Z,96818.55
2018-08-17T04:26:47.078Z,96821.49
2018-08-17T04:29:14.205Z,96821.22
2018-08-17T04:31:41.356Z,96826.17
2018-08-17T04:34:08.507Z,96820.23
2018-08-17T04:36:35.655Z,96831.05
2018-08-17T04:39:02.976Z,96834.48
2018-08-17T04:41:30.127Z,96826.16
2018-08-17T04:43:57.332Z,96832.38
2018-08-17T04:46:24.492Z,96832.69
2018-08-17T04:48:51.820Z,96833.55
2018-08-17T04:51:18.903Z,96839.42
2018-08-17T04:53:46.036Z,96834.48
2018-08-17T04:56:13.200Z,96834.43
2018-08-17T04:58:40.362Z,96830.92
2018-08-17T05:01:07.790Z,96830.91
2018-08-17T05:03:35.025Z,96834.84
2018-08-17T05:06:02.176Z,96835.02
2018-08-17T05:08:29.280Z,96839.63
2018-08-17T05:10:56.403Z,96837.48
2018-08-17T05:13:23.477Z,96845.30
2018-08-17T05:15:50.644Z,96843.52
2018-08-17T05:18:17.765Z,96850.20
2018-08-17T05:20:44.934Z,96854.16
2018-08-17T05:23:12.088Z,96853.02
2018-08-17T05:25:39.188Z,96850.64
2018-08-17T05:28:06.445Z,96849.50
2018-08-17T05:30:33.716Z,96851.36
2018-08-17T05:33:00.897Z,96849.50
2018-08-17T05:35:28.014Z,96855.72
2018-08-17T05:37:55.147Z,96856.97
2018-08-17T05:40:22.256Z,96860.84
2018-08-17T05:42:49.419Z,96858.04
2018-08-17T05:45:16.721Z,96859.35
2018-08-17T05:47:43.889Z,96868.87
2018-08-17T05:50:11.037Z,96865.66
2018-08-17T05:52:38.163Z,96864.59
2018-08-17T05:55:05.686Z,96864.66
2018-08-17T05:57:33.275Z,96859.64
2018-08-17T06:00:00.456Z,96860.09
2018-08-17T06:02:27.565Z,96861.66
2018-08-17T06:04:54.808Z,96859.30
2018-08-17T06:07:22.012Z,96868.91
2018-08-17T06:09:49.200Z,96866.16
2018-08-17T06:12:16.318Z,96867.61
2018-08-17T06:14:43.595Z,96869.17
2018-08-17T06:17:10.840Z,96874.33
2018-08-17T06:19:37.992Z,96863.71
2018-08-17T06:22:05.468Z,96867.06
2018-08-17T06:24:32.636Z,96867.34
2018-08-17T06:26:59.944Z,96866.88
2018-08-17T06:29:27.082Z,96862.72
2018-08-17T06:31:54.488Z,96867.51
2018-08-17T06:34:21.661Z,96864.20
2018-08-17T06:36:48.852Z,96872.95
2018-08-17T06:39:16.052Z,96872.95
2018-08-17T06:41:43.219Z,96868.05
2018-08-17T06:44:10.352Z,96877.25
2018-08-17T06:46:37.442Z,96878.45
2018-08-17T06:49:04.606Z,96869.90
2018-08-17T06:51:31.718Z,96870.51
2018-08-17T06:53:58.897Z,96871.35
2018-08-17T06:56:26.086Z,96868.86
2018-08-17T06:58:53.260Z,96865.39
2018-08-17T07:01:20.461Z,96860.40
2018-08-17T07:03:47.580Z,96859.06
2018-08-17T07:06:14.715Z,96867.50
2018-08-17T07:08:41.951Z,96873.66
2018-08-17T07:11:09.125Z,96867.00
2018-08-17T07:13:36.276Z,96868.80
2018-08-17T07:16:03.412Z,96866.83
2018-08-17T07:18:30.548Z,96867.05
2018-08-17T07:20:57.720Z,96867.02
2018-08-17T07:23:24.842Z,96861.95
2018-08-17T07:25:51.968Z,96865.77
2018-08-17T07:28:19.190Z,96867.34
2018-08-17T07:30:46.303Z,96863.84
2018-08-17T07:33:13.416Z,96861.85
2018-08-17T07:35:40.578Z,96861.03
2018-08-17T07:38:07.716Z,96861.39
2018-08-17T07:40:34.869Z,96859.74
2018-08-17T07:43:01.996Z,96863.03
2018-08-17T07:45:29.109Z,96862.86
2018-08-17T07:47:56.264Z,96859.58
2018-08-17T07:50:23.423Z,96865.26
2018-08-17T07:52:50.730Z,96864.81
2018-08-17T07:55:17.920Z,96867.50
2018-08-17T07:57:45.184Z,96870.33
2018-08-17T08:00:13.000Z,96865.57
2018-08-17T08:02:40.116Z,96873.44
2018-08-17T08:05:09.428Z,96870.70
2018-08-17T08:07:36.542Z,96874.09
2018-08-17T08:10:04.268Z,96870.58
2018-08-17T08:12:31.368Z,96875.00
2018-08-17T08:14:58.481Z,96877.34
2018-08-17T08:17:25.612Z,96880.64
2018-08-17T08:20:04.457Z,96877.86
2018-08-17T08:22:31.630Z,96875.66
2018-08-17T08:24:58.804Z,96879.70
2018-08-17T08:27:25.940Z,96881.41
2018-08-17T08:29:53.132Z,96886.39
2018-08-17T08:32:20.336Z,96884.61
2018-08-17T08:34:47.479Z,96883.16
2018-08-17T08:37:14.689Z,96878.30
2018-08-17T08:39:41.811Z,96883.98
2018-08-17T08:42:09.017Z,96875.71
2018-08-17T08:44:36.181Z,96887.07
2018-08-17T08:47:03.436Z,96878.28
2018-08-17T08:49:30.599Z,96885.03
2018-08-17T08:51:57.912Z,96884.70
2018-08-17T08:54:25.072Z,96884.98
2018-08-17T08:56:52.209Z,96880.45
2018-08-17T08:59:19.440Z,96878.31
2018-08-17T09:01:46.648Z,96879.35
2018-08-17T09:04:13.774Z,96883.84
2018-08-17T09:06:40.928Z,96885.09
2018-08-17T09:09:08.775Z,96882.89
2018-08-17T09:11:35.924Z,96879.12
2018-08-17T09:14:03.131Z,96881.17
2018-08-17T09:16:30.301Z,96876.98
2018-08-17T09:18:57.477Z,96876.66
2018-08-17T09:21:24.630Z,96878.73
2018-08-17T09:23:51.793Z,96874.37
2018-08-17T09:26:18.957Z,96874.59
2018-08-17T09:28:46.073Z,96874.81
2018-08-17T09:31:13.229Z,96865.24
2018-08-17T09:33:40.358Z,96868.41
2018-08-17T09:36:07.568Z,96861.53
2018-08-17T09:38:34.685Z,96861.30
2018-08-17T09:41:01.811Z,96853.92
2018-08-17T09:43:28.932Z,96852.34
2018-08-17T09:45:56.073Z,96850.83
2018-08-17T09:48:23.348Z,96846.73
2018-08-17T09:50:50.488Z,96847.83
2018-08-17T09:53:17.650Z,96842.86
2018-08-17T09:55:44.802Z,96838.16
2018-08-17T09:58:11.919Z,96840.75
2018-08-17T10:00:44.748Z,96839.91
2018-08-17T10:03:17.718Z,96838.91
2018-08-17T10:05:44.923Z,96839.99
2018-08-17T10:08:17.775Z,96840.41
2018-08-17T10:10:44.954Z,96838.02
2018-08-17T10:13:12.179Z,96827.88
2018-08-17T10:15:39.379Z,96833.97
2018-08-17T10:18:06.622Z,96831.80
2018-08-17T10:20:33.907Z,96835.75
2018-08-17T10:23:10.357Z,96831.13
2018-08-17T10:25:37.967Z,96827.33
2018-08-17T10:28:05.113Z,96832.89
2018-08-17T10:30:32.290Z,96834.85
2018-08-17T10:33:00.073Z,96825.45
2018-08-17T10:35:30.549Z,96825.58
2018-08-17T10:37:58.898Z,96819.91
2018-08-17T10:40:26.262Z,96817.38
2018-08-17T10:42:53.445Z,96819.48
2018-08-17T10:45:22.293Z,96817.34
2018-08-17T10:47:50.167Z,96816.97
2018-08-17T10:50:17.453Z,96818.24
2018-08-17T10:52:44.565Z,96816.91
2018-08-17T10:55:12.352Z,96824.37
2018-08-17T10:57:39.464Z,96823.92
2018-08-17T11:00:07.834Z,96819.69
2018-08-17T11:02:35.054Z,96820.78
2018-08-17T11:05:02.234Z,96817.03
2018-08-17T11:07:35.008Z,96822.94
2018-08-17T11:10:02.223Z,96822.45
2018-08-17T11:12:29.414Z,96814.20
2018-08-17T11:14:56.589Z,96813.10
2018-08-17T11:17:23.783Z,96814.84
2018-08-17T11:19:50.954Z,96816.84
2018-08-17T11:22:18.182Z,96812.61
2018-08-17T11:24:45.384Z,96810.23
2018-08-17T11:27:12.576Z,96806.91
2018-08-17T11:29:39.776Z,96811.59
2018-08-17T11:32:07.045Z,96810.66
2018-08-17T11:34:34.297Z,96796.65
2018-08-17T11:37:01.507Z,96810.55
2018-08-17T11:39:28.793Z,96816.92
2018-08-17T11:41:56.013Z,96812.86
2018-08-17T11:44:23.204Z,96812.16
2018-08-17T11:46:50.445Z,96809.38
2018-08-17T11:49:17.653Z,96813.88
2018-08-17T11:51:44.888Z,96810.69
2018-08-17T11:54:12.314Z,96807.06
2018-08-17T11:56:39.893Z,96809.87
2018-08-17T11:59:07.125Z,96798.55
2018-08-17T12:01:34.892Z,96800.48
2018-08-17T12:04:02.273Z,96804.44
2018-08-17T12:06:29.520Z,96805.20
2018-08-17T12:08:56.714Z,96802.53
2018-08-17T12:11:23.950Z,96803.14
2018-08-17T12:13:51.106Z,96804.00
2018-08-17T12:16:18.297Z,96797.78
2018-08-17T12:18:45.513Z,96798.95
2018-08-17T12:21:12.776Z,96801.45
2018-08-17T12:23:39.957Z,96792.73
2018-08-17T12:26:07.141Z,96792.46
2018-08-17T12:28:34.354Z,96792.13
2018-08-17T12:31:01.539Z,96791.52
2018-08-17T12:33:28.720Z,96793.02
2018-08-17T12:35:55.892Z,96785.82
2018-08-17T12:38:23.053Z,96781.11
2018-08-17T12:40:52.446Z,96781.75
2018-08-17T12:43:23.402Z,96783.00
2018-08-17T12:45:50.543Z,96775.59
2018-08-17T12:48:17.741Z,96777.61
2018-08-17T12:50:45.272Z,96776.11
2018-08-17T12:53:12.764Z,96772.03
2018-08-17T12:55:39.970Z,96777.61
2018-08-17T12:58:07.283Z,96772.70
2018-08-17T13:00:34.481Z,96767.29
2018-08-17T13:03:01.717Z,96763.53
2018-08-17T13:05:28.876Z,96766.98
2018-08-17T13:07:56.089Z,96763.12
2018-08-17T13:10:23.253Z,96755.60
2018-08-17T13:12:55.913Z,96757.83
2018-08-17T13:15:23.751Z,96758.92
2018-08-17T13:17:50.913Z,96757.50
2018-08-17T13:20:18.763Z,96745.17
2018-08-17T13:22:45.964Z,96746.34
2018-08-17T13:25:13.134Z,96750.92
2018-08-17T13:27:40.319Z,96698.06
2018-08-17T13:30:10.266Z,96750.76
2018-08-17T13:32:37.446Z,96748.42
2018-08-17T13:35:04.731Z,96750.62
2018-08-17T13:37:31.990Z,96736.31
2018-08-17T13:39:59.168Z,96738.59
2018-08-17T13:42:26.473Z,96739.20
2018-08-17T13:44:53.532Z,96728.92
2018-08-17T13:47:20.730Z,96730.85
2018-08-17T13:49:47.853Z,96728.31
2018-08-17T13:52:15.009Z,96727.33
2018-08-17T13:54:42.208Z,96725.52
2018-08-17T13:57:09.452Z,96726.57
2018-08-17T13:59:36.645Z,96728.17
2018-08-17T14:02:03.809Z,96727.36
2018-08-17T14:04:31.022Z,96733.80
2018-08-17T14:06:58.251Z,96731.81
2018-08-17T14:09:25.427Z,96726.19
2018-08-17T14:11:52.592Z,96726.73
2018-08-17T14:14:19.802Z,96723.94
2018-08-17T14:16:47.007Z,96729.45
2018-08-17T14:19:14.190Z,96725.75
2018-08-17T14:21:41.394Z,96717.46
2018-08-17T14:24:08.558Z,96723.75
2018-08-17T14:26:35.783Z,96717.97
2018-08-17T14:29:02.943Z,96720.44
2018-08-17T14:31:30.102Z,96716.42
2018-08-17T14:33:57.284Z,96717.45
2018-08-17T14:36:24.412Z,96711.78
2018-08-17T14:38:51.539Z,96708.85
2018-08-17T14:41:18.688Z,96705.34
2018-08-17T14:43:45.814Z,96705.64
2018-08-17T14:46:13.002Z,96705.52
2018-08-17T14:48:40.152Z,96707.91
2018-08-17T14:51:07.421Z,96709.59
2018-08-17T14:53:34.574Z,96706.05
2018-08-17T14:56:01.729Z,96708.06
2018-08-17T14:58:28.933Z,96703.98
2018-08-17T15:00:56.089Z,96696.86
2018-08-17T15:03:23.305Z,96695.43
2018-08-17T15:05:50.449Z,96700.48
2018-08-17T15:08:17.643Z,96697.38
2018-08-17T15:10:44.796Z,96697.25
2018-08-17T15:13:11.983Z,96692.86
2018-08-17T15:15:39.104Z,96695.31
2018-08-17T15:18:06.289Z,96690.67
2018-08-17T15:20:33.413Z,96683.06
2018-08-17T15:23:00.566Z,96685.33
2018-08-17T15:25:27.733Z,96682.77
2018-08-17T15:27:54.859Z,96681.12
2018-08-17T15:30:22.038Z,96687.27
2018-08-17T15:32:49.436Z,96681.46
2018-08-17T15:35:16.595Z,96684.55
2018-08-17T15:37:44.045Z,96680.63
2018-08-17T15:40:12.015Z,96681.18
2018-08-17T15:42:39.684Z,96682.98
2018-08-17T15:45:07.447Z,96678.22
2018-08-17T15:47:35.537Z,96685.73
2018-08-17T15:50:07.431Z,96680.38
2018-08-17T15:52:34.624Z,96677.97
2018-08-17T15:55:01.734Z,96676.25
2018-08-17T15:57:28.957Z,96674.86
2018-08-17T15:59:56.115Z,96675.72
2018-08-17T16:02:25.653Z,96673.09
2018-08-17T16:04:55.021Z,96668.11
2018-08-17T16:07:22.264Z,96673.07
2018-08-17T16:09:49.525Z,96665.45
2018-08-17T16:12:16.706Z,96662.87
2018-08-17T16:14:43.922Z,96664.74
2018-08-17T16:17:11.136Z,96659.99
2018-08-17T16:19:38.354Z,96660.11
2018-08-17T16:22:05.944Z,96653.56
2018-08-17T16:24:33.100Z,96651.22
2018-08-17T16:27:00.384Z,96657.45
2018-08-17T16:29:27.604Z,96652.36
2018-08-17T16:31:54.885Z,96651.78
2018-08-17T16:34:22.102Z,96657.02
2018-08-17T16:36:49.283Z,96662.88
2018-08-17T16:39:16.995Z,96657.74
2018-08-17T16:41:44.317Z,96657.73
2018-08-17T16:44:11.955Z,96659.33
2018-08-17T16:46:40.407Z,96655.71
2018-08-17T16:49:07.760Z,96656.86
2018-08-17T16:51:35.040Z,96657.62
2018-08-17T16:54:02.235Z,96654.38
2018-08-17T16:56:29.434Z,96655.95
2018-08-17T16:58:56.668Z,96657.55
2018-08-17T17:01:23.896Z,96648.48
2018-08-17T17:03:51.200Z,96651.66
2018-08-17T17:06:18.345Z,96655.73
2018-08-17T17:08:45.554Z,96656.31
2018-08-17T17:11:12.715Z,96534.11
2018-08-17T17:13:41.070Z,96664.30
2018-08-17T17:16:08.282Z,96666.20
2018-08-17T17:18:35.453Z,96662.70
2018-08-17T17:21:02.675Z,96666.27
2018-08-17T17:23:29.846Z,96671.78
2018-08-17T17:25:56.995Z,96671.74
2018-08-17T17:28:29.029Z,96680.23
2018-08-17T17:30:56.239Z,96675.56
2018-08-17T17:33:23.397Z,96679.26
2018-08-17T17:35:50.627Z,96679.39
2018-08-17T17:38:17.841Z,96679.16
2018-08-17T17:40:45.083Z,96679.95
2018-08-17T17:43:12.283Z,96687.27
2018-08-17T17:45:39.890Z,96689.77
2018-08-17T17:48:07.329Z,96686.93
2018-08-17T17:50:34.513Z,96688.37
2018-08-17T17:53:02.573Z,96689.12
2018-08-17T17:55:35.342Z,96702.17
2018-08-17T17:58:02.497Z,96695.16
2018-08-17T18:00:29.952Z,96700.52
2018-08-17T18:02:57.164Z,96705.73
2018-08-17T18:05:24.357Z,96708.66
2018-08-17T18:07:51.555Z,96707.61
2018-08-17T18:10:20.153Z,96717.50
2018-08-17T18:12:47.800Z,96716.67
2018-08-17T18:15:14.998Z,96717.20
2018-08-17T18:17:42.213Z,96727.73
2018-08-17T18:20:10.053Z,96729.19
2018-08-17T18:22:37.166Z,96727.92
2018-08-17T18:25:10.271Z,96729.50
2018-08-17T18:27:37.441Z,96736.66
2018-08-17T18:30:05.043Z,96736.88
2018-08-17T18:32:32.206Z,96736.73
2018-08-17T18:34:59.559Z,96746.11
2018-08-17T18:37:26.852Z,96751.28
2018-08-17T18:39:54.002Z,96751.77
2018-08-17T18:42:21.128Z,96750.28
2018-08-17T18:44:48.254Z,96757.47
2018-08-17T18:47:15.448Z,96753.06
2018-08-17T18:49:42.667Z,96757.00
2018-08-17T18:52:09.913Z,96759.03
2018-08-17T18:54:37.092Z,96765.98
2018-08-17T18:57:04.321Z,96762.58
2018-08-17T18:59:31.527Z,96769.70
2018-08-17T19:01:58.712Z,96773.55
2018-08-17T19:04:25.993Z,96778.27
2018-08-17T19:06:53.342Z,96782.75
2018-08-17T19:09:20.569Z,96790.96
2018-08-17T19:11:47.749Z,96795.39
2018-08-17T19:14:14.941Z,96797.36
2018-08-17T19:16:42.161Z,96795.02
2018-08-17T19:19:09.329Z,96800.18
2018-08-17T19:21:36.457Z,96795.36
2018-08-17T19:24:08.468Z,96804.58
2018-08-17T19:26:35.676Z,96793.35
2018-08-17T19:29:02.912Z,96791.50
2018-08-17T19:31:30.117Z,96792.73
2018-08-17T19:33:57.328Z,96787.33
2018-08-17T19:36:24.480Z,96787.34
2018-08-17T19:38:51.792Z,96798.16
2018-08-17T19:41:18.954Z,96793.03
2018-08-17T19:43:46.643Z,96792.70
2018-08-17T19:46:13.970Z,96803.20
2018-08-17T19:48:41.005Z,96806.99
2018-08-17T19:51:13.970Z,96801.45
2018-08-17T19:53:41.213Z,96812.38
2018-08-17T19:56:08.503Z,96806.98
2018-08-17T19:58:35.748Z,96809.78
2018-08-17T20:01:03.277Z,96811.14
2018-08-17T20:03:30.522Z,96809.41
2018-08-17T20:05:57.798Z,96819.23
2018-08-17T20:08:25.222Z,96818.06
2018-08-17T20:10:53.015Z,96821.80
2018-08-17T20:13:30.493Z,96821.19
2018-08-17T20:15:58.018Z,96826.67
2018-08-17T20:18:25.228Z,96826.00
2018-08-17T20:20:52.415Z,96825.84
2018-08-17T20:23:32.477Z,96827.12
2018-08-17T20:25:59.754Z,96833.10
2018-08-17T20:28:29.282Z,96857.36
2018-08-17T20:30:56.521Z,96856.89
2018-08-17T20:33:27.609Z,96858.66
2018-08-17T20:35:55.264Z,96854.78
2018-08-17T20:38:22.609Z,96864.20
2018-08-17T20:40:49.805Z,96860.95
2018-08-17T20:43:17.033Z,96859.16
2018-08-17T20:45:44.208Z,96860.42
2018-08-17T20:48:11.396Z,96863.95
2018-08-17T20:50:38.564Z,96860.16
2018-08-17T20:53:05.782Z,96864.54
2018-08-17T20:55:33.039Z,96859.97
2018-08-17T20:58:00.338Z,96864.35
2018-08-17T21:00:28.564Z,96861.41
2018-08-17T21:15:55.378Z,96861.66
2018-08-17T21:18:22.550Z,96889.40
2018-08-17T21:20:54.835Z,96894.55
2018-08-17T21:23:32.141Z,96897.98
2018-08-17T21:25:59.662Z,96899.39
2018-08-17T21:28:26.890Z,96904.45
2018-08-17T21:30:54.115Z,96901.71
2018-08-17T21:33:21.306Z,96897.29
2018-08-17T21:35:48.482Z,96905.94
2018-08-17T21:38:15.736Z,96917.30
2018-08-17T21:40:42.944Z,96921.36
2018-08-17T21:43:10.177Z,96921.34
2018-08-17T21:45:37.343Z,96926.73
2018-08-17T21:48:08.695Z,96927.13
2018-08-17T21:50:35.725Z,96937.31
2018-08-17T21:53:02.888Z,96945.41
2018-08-17T21:55:30.003Z,96948.70
2018-08-17T21:57:57.192Z,96959.09
2018-08-17T22:00:28.656Z,96961.20
2018-08-17T22:02:55.872Z,96964.09
2018-08-17T22:05:37.962Z,96962.75
2018-08-17T22:08:05.192Z,96964.64
2018-08-17T22:10:32.365Z,96969.66
2018-08-17T22:12:59.474Z,96963.29
2018-08-17T22:15:28.247Z,96975.43
2018-08-17T22:17:55.384Z,96985.42
2018-08-17T22:20:22.558Z,96988.28
2018-08-17T22:22:49.739Z,96980.41
2018-08-17T22:25:17.781Z,96986.16
2018-08-17T22:27:45.305Z,96986.36
2018-08-17T22:30:16.698Z,96997.67
2018-08-17T22:32:43.802Z,96990.75
2018-08-17T22:35:11.320Z,97004.41
2018-08-17T22:37:38.442Z,97002.09
2018-08-17T22:40:05.577Z,97003.83
2018-08-17T22:42:32.708Z,97006.33
2018-08-17T22:45:00.276Z,96998.41
2018-08-17T22:47:28.156Z,97006.09
2018-08-17T22:49:57.388Z,97006.84
2018-08-17T22:52:24.564Z,97005.48
2018-08-17T22:54:57.779Z,97002.15
2018-08-17T22:57:25.564Z,97007.91
2018-08-17T23:00:09.860Z,97009.24
2018-08-17T23:02:37.412Z,97008.80
2018-08-17T23:05:05.533Z,97012.07
2018-08-17T23:07:32.775Z,97009.72
2018-08-17T23:09:59.916Z,97014.56
2018-08-17T23:12:27.057Z,97010.28
2018-08-17T23:14:54.266Z,97012.30
2018-08-17T23:17:21.382Z,97017.52
2018-08-17T23:19:48.544Z,97016.46
2018-08-17T23:22:15.741Z,97015.10
2018-08-17T23:24:42.881Z,97023.55
2018-08-17T23:27:10.044Z,97024.75
2018-08-17T23:29:37.214Z,97018.98
2018-08-17T23:32:04.415Z,97026.53
2018-08-17T23:34:31.593Z,97024.16
2018-08-17T23:36:58.750Z,97028.66
2018-08-17T23:39:25.929Z,97025.08
2018-08-17T23:41:53.158Z,97020.67
2018-08-17T23:44:20.256Z,97021.47
2018-08-17T23:46:47.484Z,97016.02
2018-08-17T23:49:14.622Z,97014.36
2018-08-17T23:51:41.757Z,97011.20
2018-08-17T23:54:08.906Z,97013.69
2018-08-17T23:56:36.116Z,97012.09
2018-08-17T23:59:03.337Z,97017.72
